sensor_id;sensor_type;location;lat;lon;timestamp;temperature;humidity
35373;DHT22;21476;51.652;7.852;2022-12-15T00:00:24;-5.40;99.90
35373;DHT22;21476;51.652;7.852;2022-12-15T00:03:08;-5.40;99.90
35373;DHT22;21476;51.652;7.852;2022-12-15T00:05:58;-5.40;99.90
35373;DHT22;21476;51.652;7.852;2022-12-15T00:08:53;-5.50;99.90
35373;DHT22;21476;51.652;7.852;2022-12-15T00:11:43;-5.50;99.90
35373;DHT22;21476;51.652;7.852;2022-12-15T00:14:30;-5.60;99.90
35373;DHT22;21476;51.652;7.852;2022-12-15T00:17:17;-5.70;99.90
35373;DHT22;21476;51.652;7.852;2022-12-15T00:20:08;-5.70;99.90
35373;DHT22;21476;51.652;7.852;2022-12-15T00:22:53;-5.80;99.90
35373;DHT22;21476;51.652;7.852;2022-12-15T00:25:37;-5.80;99.90
35373;DHT22;21476;51.652;7.852;2022-12-15T00:28:21;-6.00;99.90
35373;DHT22;21476;51.652;7.852;2022-12-15T00:31:05;-6.10;99.90
35373;DHT22;21476;51.652;7.852;2022-12-15T00:34:06;-6.20;99.90
35373;DHT22;21476;51.652;7.852;2022-12-15T00:37:09;-6.30;99.90
35373;DHT22;21476;51.652;7.852;2022-12-15T00:39:53;-6.20;99.90
35373;DHT22;21476;51.652;7.852;2022-12-15T00:42:23;-6.30;99.90
35373;DHT22;21476;51.652;7.852;2022-12-15T00:44:48;-6.30;99.90
35373;DHT22;21476;51.652;7.852;2022-12-15T00:47:15;-6.30;99.90
35373;DHT22;21476;51.652;7.852;2022-12-15T00:49:41;-6.30;99.90
35373;DHT22;21476;51.652;7.852;2022-12-15T00:52:26;-6.40;99.90
35373;DHT22;21476;51.652;7.852;2022-12-15T00:55:10;-6.40;99.90
35373;DHT22;21476;51.652;7.852;2022-12-15T00:57:54;-6.30;99.90
35373;DHT22;21476;51.652;7.852;2022-12-15T01:00:38;-6.20;99.90
35373;DHT22;21476;51.652;7.852;2022-12-15T01:03:23;-6.10;99.90
35373;DHT22;21476;51.652;7.852;2022-12-15T01:06:13;-6.00;99.90
35373;DHT22;21476;51.652;7.852;2022-12-15T01:08:58;-5.90;99.90
35373;DHT22;21476;51.652;7.852;2022-12-15T01:11:42;-5.80;99.90
35373;DHT22;21476;51.652;7.852;2022-12-15T01:14:27;-5.80;99.90
35373;DHT22;21476;51.652;7.852;2022-12-15T01:17:12;-5.70;99.90
35373;DHT22;21476;51.652;7.852;2022-12-15T01:19:57;-5.70;99.90
35373;DHT22;21476;51.652;7.852;2022-12-15T01:22:39;-5.70;99.90
35373;DHT22;21476;51.652;7.852;2022-12-15T01:25:06;-5.70;99.90
35373;DHT22;21476;51.652;7.852;2022-12-15T01:27:32;-5.70;99.90
35373;DHT22;21476;51.652;7.852;2022-12-15T01:29:58;-5.70;99.90
35373;DHT22;21476;51.652;7.852;2022-12-15T01:32:23;-5.60;99.90
35373;DHT22;21476;51.652;7.852;2022-12-15T01:34:49;-5.60;99.90
35373;DHT22;21476;51.652;7.852;2022-12-15T01:37:15;-5.60;99.90
35373;DHT22;21476;51.652;7.852;2022-12-15T01:39:40;-5.60;99.90
35373;DHT22;21476;51.652;7.852;2022-12-15T01:42:25;-5.60;99.90
35373;DHT22;21476;51.652;7.852;2022-12-15T01:44:52;-5.60;99.90
35373;DHT22;21476;51.652;7.852;2022-12-15T01:47:22;-5.50;99.90
35373;DHT22;21476;51.652;7.852;2022-12-15T01:49:48;-5.40;99.90
35373;DHT22;21476;51.652;7.852;2022-12-15T01:52:15;-5.40;99.90
35373;DHT22;21476;51.652;7.852;2022-12-15T01:54:47;-5.40;99.90
35373;DHT22;21476;51.652;7.852;2022-12-15T01:57:16;-5.30;99.90
35373;DHT22;21476;51.652;7.852;2022-12-15T01:59:49;-5.30;99.90
35373;DHT22;21476;51.652;7.852;2022-12-15T02:02:17;-5.20;99.90
35373;DHT22;21476;51.652;7.852;2022-12-15T02:04:44;-5.20;99.90
35373;DHT22;21476;51.652;7.852;2022-12-15T02:07:15;-5.20;99.90
35373;DHT22;21476;51.652;7.852;2022-12-15T02:09:42;-5.20;99.90
35373;DHT22;21476;51.652;7.852;2022-12-15T02:20:57;-5.30;99.90
35373;DHT22;21476;51.652;7.852;2022-12-15T02:26:21;-5.40;99.90
35373;DHT22;21476;51.652;7.852;2022-12-15T02:36:45;-5.00;99.90
35373;DHT22;21476;51.652;7.852;2022-12-15T02:39:13;-4.90;99.90
35373;DHT22;21476;51.652;7.852;2022-12-15T02:41:42;-4.80;99.90
35373;DHT22;21476;51.652;7.852;2022-12-15T02:46:49;-4.60;99.90
35373;DHT22;21476;51.652;7.852;2022-12-15T02:58:01;-4.10;99.90
35373;DHT22;21476;51.652;7.852;2022-12-15T03:00:29;-4.00;99.90
35373;DHT22;21476;51.652;7.852;2022-12-15T03:02:57;-3.90;99.90
35373;DHT22;21476;51.652;7.852;2022-12-15T03:05:24;-3.90;99.90
35373;DHT22;21476;51.652;7.852;2022-12-15T03:07:51;-3.80;99.90
35373;DHT22;21476;51.652;7.852;2022-12-15T03:10:17;-3.80;99.90
35373;DHT22;21476;51.652;7.852;2022-12-15T03:12:44;-3.80;99.90
35373;DHT22;21476;51.652;7.852;2022-12-15T03:15:10;-3.80;99.90
35373;DHT22;21476;51.652;7.852;2022-12-15T03:17:36;-3.80;99.90
35373;DHT22;21476;51.652;7.852;2022-12-15T03:20:03;-3.80;99.90
35373;DHT22;21476;51.652;7.852;2022-12-15T03:22:29;-3.70;99.90
35373;DHT22;21476;51.652;7.852;2022-12-15T03:24:54;-3.70;99.90
35373;DHT22;21476;51.652;7.852;2022-12-15T03:27:20;-3.70;99.90
35373;DHT22;21476;51.652;7.852;2022-12-15T03:29:46;-3.70;99.90
35373;DHT22;21476;51.652;7.852;2022-12-15T03:32:11;-3.80;99.90
35373;DHT22;21476;51.652;7.852;2022-12-15T03:34:37;-3.70;99.90
35373;DHT22;21476;51.652;7.852;2022-12-15T03:37:02;-3.80;99.90
35373;DHT22;21476;51.652;7.852;2022-12-15T03:39:28;-3.80;99.90
35373;DHT22;21476;51.652;7.852;2022-12-15T03:41:54;-3.80;99.90
35373;DHT22;21476;51.652;7.852;2022-12-15T03:44:19;-3.80;99.90
35373;DHT22;21476;51.652;7.852;2022-12-15T03:46:45;-3.90;99.90
35373;DHT22;21476;51.652;7.852;2022-12-15T03:49:11;-3.90;99.90
35373;DHT22;21476;51.652;7.852;2022-12-15T03:51:37;-3.90;99.90
35373;DHT22;21476;51.652;7.852;2022-12-15T03:54:03;-3.90;99.90
35373;DHT22;21476;51.652;7.852;2022-12-15T03:56:28;-3.90;99.90
35373;DHT22;21476;51.652;7.852;2022-12-15T03:58:54;-4.00;99.90
35373;DHT22;21476;51.652;7.852;2022-12-15T04:03:45;-4.00;99.90
35373;DHT22;21476;51.652;7.852;2022-12-15T04:06:11;-4.00;99.90
35373;DHT22;21476;51.652;7.852;2022-12-15T04:08:36;-4.10;99.90
35373;DHT22;21476;51.652;7.852;2022-12-15T04:11:02;-4.20;99.90
35373;DHT22;21476;51.652;7.852;2022-12-15T04:13:27;-4.20;99.90
35373;DHT22;21476;51.652;7.852;2022-12-15T04:15:53;-4.30;99.90
35373;DHT22;21476;51.652;7.852;2022-12-15T04:18:19;-4.30;99.90
35373;DHT22;21476;51.652;7.852;2022-12-15T04:20:45;-4.30;99.90
35373;DHT22;21476;51.652;7.852;2022-12-15T04:23:10;-4.30;99.90
35373;DHT22;21476;51.652;7.852;2022-12-15T04:25:36;-4.40;99.90
35373;DHT22;21476;51.652;7.852;2022-12-15T04:28:21;-4.40;99.90
35373;DHT22;21476;51.652;7.852;2022-12-15T04:31:11;-4.50;99.90
35373;DHT22;21476;51.652;7.852;2022-12-15T04:34:02;-4.50;99.90
35373;DHT22;21476;51.652;7.852;2022-12-15T04:36:48;-4.50;99.90
35373;DHT22;21476;51.652;7.852;2022-12-15T04:39:35;-4.50;99.90
35373;DHT22;21476;51.652;7.852;2022-12-15T04:42:20;-4.60;99.90
35373;DHT22;21476;51.652;7.852;2022-12-15T04:45:05;-4.60;99.90
35373;DHT22;21476;51.652;7.852;2022-12-15T04:47:51;-4.70;99.90
35373;DHT22;21476;51.652;7.852;2022-12-15T04:53:13;-4.60;99.90
35373;DHT22;21476;51.652;7.852;2022-12-15T04:55:58;-4.70;99.90
35373;DHT22;21476;51.652;7.852;2022-12-15T04:58:42;-4.70;99.90
35373;DHT22;21476;51.652;7.852;2022-12-15T05:01:27;-4.70;99.90
35373;DHT22;21476;51.652;7.852;2022-12-15T05:04:12;-4.80;99.90
35373;DHT22;21476;51.652;7.852;2022-12-15T05:06:56;-4.80;99.90
35373;DHT22;21476;51.652;7.852;2022-12-15T05:09:40;-4.80;99.90
35373;DHT22;21476;51.652;7.852;2022-12-15T05:12:24;-4.80;99.90
35373;DHT22;21476;51.652;7.852;2022-12-15T05:15:08;-4.70;99.90
35373;DHT22;21476;51.652;7.852;2022-12-15T05:17:53;-4.70;99.90
35373;DHT22;21476;51.652;7.852;2022-12-15T05:20:38;-4.70;99.90
35373;DHT22;21476;51.652;7.852;2022-12-15T05:23:22;-4.60;99.90
35373;DHT22;21476;51.652;7.852;2022-12-15T05:26:06;-4.60;99.90
35373;DHT22;21476;51.652;7.852;2022-12-15T05:28:50;-4.70;99.90
35373;DHT22;21476;51.652;7.852;2022-12-15T05:31:35;-4.70;99.90
35373;DHT22;21476;51.652;7.852;2022-12-15T05:34:24;-4.70;99.90
35373;DHT22;21476;51.652;7.852;2022-12-15T05:36:51;-4.80;99.90
35373;DHT22;21476;51.652;7.852;2022-12-15T05:39:17;-4.80;99.90
35373;DHT22;21476;51.652;7.852;2022-12-15T05:41:42;-4.80;99.90
35373;DHT22;21476;51.652;7.852;2022-12-15T05:44:08;-4.80;99.90
35373;DHT22;21476;51.652;7.852;2022-12-15T05:46:34;-4.80;99.90
35373;DHT22;21476;51.652;7.852;2022-12-15T05:49:05;-4.80;99.90
35373;DHT22;21476;51.652;7.852;2022-12-15T05:51:31;-4.80;99.90
35373;DHT22;21476;51.652;7.852;2022-12-15T05:53:57;-4.80;99.90
35373;DHT22;21476;51.652;7.852;2022-12-15T05:56:24;-4.90;99.90
35373;DHT22;21476;51.652;7.852;2022-12-15T05:58:51;-4.90;99.90
35373;DHT22;21476;51.652;7.852;2022-12-15T06:01:17;-4.90;99.90
35373;DHT22;21476;51.652;7.852;2022-12-15T06:03:43;-4.90;99.90
35373;DHT22;21476;51.652;7.852;2022-12-15T06:06:11;-4.90;99.90
35373;DHT22;21476;51.652;7.852;2022-12-15T06:08:38;-4.90;99.90
35373;DHT22;21476;51.652;7.852;2022-12-15T06:11:05;-4.80;99.90
35373;DHT22;21476;51.652;7.852;2022-12-15T06:13:32;-4.90;99.90
35373;DHT22;21476;51.652;7.852;2022-12-15T06:16:24;-5.00;99.90
35373;DHT22;21476;51.652;7.852;2022-12-15T06:18:51;-5.00;99.90
35373;DHT22;21476;51.652;7.852;2022-12-15T06:21:23;-5.00;99.90
35373;DHT22;21476;51.652;7.852;2022-12-15T06:23:49;-5.00;99.90
35373;DHT22;21476;51.652;7.852;2022-12-15T06:26:22;-5.00;99.90
35373;DHT22;21476;51.652;7.852;2022-12-15T06:28:49;-5.00;99.90
35373;DHT22;21476;51.652;7.852;2022-12-15T06:31:17;-5.00;99.90
35373;DHT22;21476;51.652;7.852;2022-12-15T06:33:43;-5.00;99.90
35373;DHT22;21476;51.652;7.852;2022-12-15T06:36:13;-5.10;99.90
35373;DHT22;21476;51.652;7.852;2022-12-15T06:38:40;-5.10;99.90
35373;DHT22;21476;51.652;7.852;2022-12-15T06:41:09;-5.10;99.90
35373;DHT22;21476;51.652;7.852;2022-12-15T06:43:35;-5.20;99.90
35373;DHT22;21476;51.652;7.852;2022-12-15T06:46:01;-5.30;99.90
35373;DHT22;21476;51.652;7.852;2022-12-15T06:48:26;-5.30;99.90
35373;DHT22;21476;51.652;7.852;2022-12-15T06:50:52;-5.40;99.90
35373;DHT22;21476;51.652;7.852;2022-12-15T06:53:19;-5.40;99.90
35373;DHT22;21476;51.652;7.852;2022-12-15T06:55:45;-5.50;99.90
35373;DHT22;21476;51.652;7.852;2022-12-15T06:58:12;-5.60;99.90
35373;DHT22;21476;51.652;7.852;2022-12-15T07:00:40;-5.60;99.90
35373;DHT22;21476;51.652;7.852;2022-12-15T07:03:07;-5.60;99.90
35373;DHT22;21476;51.652;7.852;2022-12-15T07:05:34;-5.60;99.90
35373;DHT22;21476;51.652;7.852;2022-12-15T07:07:59;-5.70;99.90
35373;DHT22;21476;51.652;7.852;2022-12-15T07:10:25;-5.70;99.90
35373;DHT22;21476;51.652;7.852;2022-12-15T07:12:50;-5.80;99.90
35373;DHT22;21476;51.652;7.852;2022-12-15T07:15:16;-5.70;99.90
35373;DHT22;21476;51.652;7.852;2022-12-15T07:17:42;-5.80;99.90
35373;DHT22;21476;51.652;7.852;2022-12-15T07:20:08;-5.80;99.90
35373;DHT22;21476;51.652;7.852;2022-12-15T07:22:33;-5.80;99.90
35373;DHT22;21476;51.652;7.852;2022-12-15T07:24:59;-5.70;99.90
35373;DHT22;21476;51.652;7.852;2022-12-15T07:27:25;-5.80;99.90
35373;DHT22;21476;51.652;7.852;2022-12-15T07:29:51;-5.90;99.90
35373;DHT22;21476;51.652;7.852;2022-12-15T07:32:17;-5.90;99.90
35373;DHT22;21476;51.652;7.852;2022-12-15T07:34:43;-5.90;99.90
35373;DHT22;21476;51.652;7.852;2022-12-15T07:37:09;-5.90;99.90
35373;DHT22;21476;51.652;7.852;2022-12-15T07:39:34;-5.90;99.90
35373;DHT22;21476;51.652;7.852;2022-12-15T07:42:00;-5.90;99.90
35373;DHT22;21476;51.652;7.852;2022-12-15T07:44:26;-6.00;99.90
35373;DHT22;21476;51.652;7.852;2022-12-15T07:46:53;-6.00;99.90
35373;DHT22;21476;51.652;7.852;2022-12-15T07:49:19;-5.80;99.90
35373;DHT22;21476;51.652;7.852;2022-12-15T07:51:45;-5.80;99.90
35373;DHT22;21476;51.652;7.852;2022-12-15T07:54:11;-5.90;99.90
35373;DHT22;21476;51.652;7.852;2022-12-15T07:56:38;-5.90;99.90
35373;DHT22;21476;51.652;7.852;2022-12-15T07:59:04;-5.70;99.90
35373;DHT22;21476;51.652;7.852;2022-12-15T08:01:29;-5.40;99.90
35373;DHT22;21476;51.652;7.852;2022-12-15T08:03:55;-5.10;99.90
35373;DHT22;21476;51.652;7.852;2022-12-15T08:06:21;-4.90;99.90
35373;DHT22;21476;51.652;7.852;2022-12-15T08:08:46;-4.50;99.90
35373;DHT22;21476;51.652;7.852;2022-12-15T08:11:14;-4.20;99.90
35373;DHT22;21476;51.652;7.852;2022-12-15T08:13:41;-3.90;99.90
35373;DHT22;21476;51.652;7.852;2022-12-15T08:16:08;-4.10;99.90
35373;DHT22;21476;51.652;7.852;2022-12-15T08:18:33;-4.20;99.90
35373;DHT22;21476;51.652;7.852;2022-12-15T08:21:03;-4.10;99.90
35373;DHT22;21476;51.652;7.852;2022-12-15T08:23:30;-3.90;99.90
35373;DHT22;21476;51.652;7.852;2022-12-15T08:26:11;-3.80;99.90
35373;DHT22;21476;51.652;7.852;2022-12-15T08:28:38;-3.60;99.90
35373;DHT22;21476;51.652;7.852;2022-12-15T08:31:05;-3.40;99.90
35373;DHT22;21476;51.652;7.852;2022-12-15T08:33:32;-3.50;99.90
35373;DHT22;21476;51.652;7.852;2022-12-15T08:35:59;-3.50;99.90
35373;DHT22;21476;51.652;7.852;2022-12-15T08:38:24;-3.40;99.90
35373;DHT22;21476;51.652;7.852;2022-12-15T08:40:50;-3.10;99.90
35373;DHT22;21476;51.652;7.852;2022-12-15T08:43:16;-2.60;99.90
35373;DHT22;21476;51.652;7.852;2022-12-15T08:45:41;-1.90;99.90
35373;DHT22;21476;51.652;7.852;2022-12-15T08:48:07;-1.30;99.90
35373;DHT22;21476;51.652;7.852;2022-12-15T08:50:32;-0.40;99.90
35373;DHT22;21476;51.652;7.852;2022-12-15T08:52:58;0.10;99.90
35373;DHT22;21476;51.652;7.852;2022-12-15T08:55:23;0.30;99.90
35373;DHT22;21476;51.652;7.852;2022-12-15T08:57:50;0.50;99.90
35373;DHT22;21476;51.652;7.852;2022-12-15T09:00:15;0.90;99.90
35373;DHT22;21476;51.652;7.852;2022-12-15T09:02:42;1.00;99.90
35373;DHT22;21476;51.652;7.852;2022-12-15T09:05:08;1.30;99.90
35373;DHT22;21476;51.652;7.852;2022-12-15T09:07:34;1.70;99.90
35373;DHT22;21476;51.652;7.852;2022-12-15T09:09:59;2.10;99.90
35373;DHT22;21476;51.652;7.852;2022-12-15T09:12:25;3.00;99.90
35373;DHT22;21476;51.652;7.852;2022-12-15T09:14:51;4.40;99.90
35373;DHT22;21476;51.652;7.852;2022-12-15T09:17:17;4.90;99.90
35373;DHT22;21476;51.652;7.852;2022-12-15T09:19:42;6.50;99.90
35373;DHT22;21476;51.652;7.852;2022-12-15T09:22:08;6.20;99.90
35373;DHT22;21476;51.652;7.852;2022-12-15T09:24:34;6.40;99.90
35373;DHT22;21476;51.652;7.852;2022-12-15T09:27:00;6.50;99.90
35373;DHT22;21476;51.652;7.852;2022-12-15T09:29:25;7.30;99.90
35373;DHT22;21476;51.652;7.852;2022-12-15T09:31:51;7.70;99.90
35373;DHT22;21476;51.652;7.852;2022-12-15T09:34:17;8.50;99.90
35373;DHT22;21476;51.652;7.852;2022-12-15T09:36:42;8.30;99.90
35373;DHT22;21476;51.652;7.852;2022-12-15T09:39:09;7.80;99.90
35373;DHT22;21476;51.652;7.852;2022-12-15T09:41:37;7.40;99.90
35373;DHT22;21476;51.652;7.852;2022-12-15T09:44:15;8.30;99.90
35373;DHT22;21476;51.652;7.852;2022-12-15T09:47:17;9.80;98.50
35373;DHT22;21476;51.652;7.852;2022-12-15T09:49:58;8.90;98.30
35373;DHT22;21476;51.652;7.852;2022-12-15T09:52:30;8.30;99.20
35373;DHT22;21476;51.652;7.852;2022-12-15T09:54:57;7.40;99.90
35373;DHT22;21476;51.652;7.852;2022-12-15T09:57:34;7.00;99.90
35373;DHT22;21476;51.652;7.852;2022-12-15T10:05:41;7.20;99.90
35373;DHT22;21476;51.652;7.852;2022-12-15T10:08:09;7.40;99.90
35373;DHT22;21476;51.652;7.852;2022-12-15T10:10:53;7.90;99.90
35373;DHT22;21476;51.652;7.852;2022-12-15T10:13:31;8.10;99.90
35373;DHT22;21476;51.652;7.852;2022-12-15T10:18:49;7.50;99.90
35373;DHT22;21476;51.652;7.852;2022-12-15T10:21:17;6.90;99.90
35373;DHT22;21476;51.652;7.852;2022-12-15T10:23:43;6.60;99.90
35373;DHT22;21476;51.652;7.852;2022-12-15T10:26:24;7.30;99.90
35373;DHT22;21476;51.652;7.852;2022-12-15T10:29:31;7.70;99.90
35373;DHT22;21476;51.652;7.852;2022-12-15T10:32:21;7.40;99.90
35373;DHT22;21476;51.652;7.852;2022-12-15T10:34:49;8.40;99.90
35373;DHT22;21476;51.652;7.852;2022-12-15T10:37:18;7.80;99.90
35373;DHT22;21476;51.652;7.852;2022-12-15T10:39:47;7.40;99.90
35373;DHT22;21476;51.652;7.852;2022-12-15T10:44:55;8.10;99.90
35373;DHT22;21476;51.652;7.852;2022-12-15T10:47:31;7.50;99.90
35373;DHT22;21476;51.652;7.852;2022-12-15T10:52:41;6.10;99.90
35373;DHT22;21476;51.652;7.852;2022-12-15T10:55:36;5.60;99.90
35373;DHT22;21476;51.652;7.852;2022-12-15T10:58:14;5.60;99.90
35373;DHT22;21476;51.652;7.852;2022-12-15T11:00:41;5.70;99.90
35373;DHT22;21476;51.652;7.852;2022-12-15T11:03:24;5.60;99.90
35373;DHT22;21476;51.652;7.852;2022-12-15T11:05:55;5.60;99.90
35373;DHT22;21476;51.652;7.852;2022-12-15T11:08:22;5.30;99.90
35373;DHT22;21476;51.652;7.852;2022-12-15T11:10:56;5.20;99.90
35373;DHT22;21476;51.652;7.852;2022-12-15T11:13:41;5.20;99.90
35373;DHT22;21476;51.652;7.852;2022-12-15T11:16:14;5.10;99.90
35373;DHT22;21476;51.652;7.852;2022-12-15T11:18:54;5.30;99.90
35373;DHT22;21476;51.652;7.852;2022-12-15T11:21:25;5.40;99.90
35373;DHT22;21476;51.652;7.852;2022-12-15T11:32:08;4.40;99.90
35373;DHT22;21476;51.652;7.852;2022-12-15T11:34:43;4.20;99.90
35373;DHT22;21476;51.652;7.852;2022-12-15T11:37:14;4.00;99.90
35373;DHT22;21476;51.652;7.852;2022-12-15T11:45:23;3.70;99.90
35373;DHT22;21476;51.652;7.852;2022-12-15T11:51:00;3.60;99.90
35373;DHT22;21476;51.652;7.852;2022-12-15T11:56:19;3.60;99.90
35373;DHT22;21476;51.652;7.852;2022-12-15T12:02:14;3.30;99.90
35373;DHT22;21476;51.652;7.852;2022-12-15T12:13:24;3.40;99.90
35373;DHT22;21476;51.652;7.852;2022-12-15T12:18:43;3.40;99.90
35373;DHT22;21476;51.652;7.852;2022-12-15T12:21:15;3.40;99.90
35373;DHT22;21476;51.652;7.852;2022-12-15T12:23:51;3.40;99.90
35373;DHT22;21476;51.652;7.852;2022-12-15T12:34:43;3.50;99.90
35373;DHT22;21476;51.652;7.852;2022-12-15T12:37:37;3.30;99.90
35373;DHT22;21476;51.652;7.852;2022-12-15T12:40:04;3.20;99.90
35373;DHT22;21476;51.652;7.852;2022-12-15T12:42:41;3.10;99.90
35373;DHT22;21476;51.652;7.852;2022-12-15T12:45:11;3.00;99.90
35373;DHT22;21476;51.652;7.852;2022-12-15T12:47:42;3.00;99.90
35373;DHT22;21476;51.652;7.852;2022-12-15T12:50:21;2.90;99.90
35373;DHT22;21476;51.652;7.852;2022-12-15T12:52:50;2.90;99.90
35373;DHT22;21476;51.652;7.852;2022-12-15T12:55:39;3.00;99.90
35373;DHT22;21476;51.652;7.852;2022-12-15T12:58:36;2.90;99.90
35373;DHT22;21476;51.652;7.852;2022-12-15T13:01:19;2.80;99.90
35373;DHT22;21476;51.652;7.852;2022-12-15T13:07:04;2.90;99.90
35373;DHT22;21476;51.652;7.852;2022-12-15T13:09:43;2.80;99.90
35373;DHT22;21476;51.652;7.852;2022-12-15T13:12:32;2.70;99.90
35373;DHT22;21476;51.652;7.852;2022-12-15T13:15:04;2.70;99.90
35373;DHT22;21476;51.652;7.852;2022-12-15T13:17:40;2.60;99.90
35373;DHT22;21476;51.652;7.852;2022-12-15T13:20:22;2.50;99.90
35373;DHT22;21476;51.652;7.852;2022-12-15T13:22:49;2.60;99.90
35373;DHT22;21476;51.652;7.852;2022-12-15T13:27:55;2.50;99.90
35373;DHT22;21476;51.652;7.852;2022-12-15T13:30:26;2.60;99.90
35373;DHT22;21476;51.652;7.852;2022-12-15T13:33:13;2.50;99.90
35373;DHT22;21476;51.652;7.852;2022-12-15T13:35:41;2.40;99.90
35373;DHT22;21476;51.652;7.852;2022-12-15T13:38:16;2.30;99.90
35373;DHT22;21476;51.652;7.852;2022-12-15T13:40:52;2.30;99.90
35373;DHT22;21476;51.652;7.852;2022-12-15T13:45:58;2.30;99.90
35373;DHT22;21476;51.652;7.852;2022-12-15T13:48:33;2.20;99.90
35373;DHT22;21476;51.652;7.852;2022-12-15T13:59:46;2.10;99.90
35373;DHT22;21476;51.652;7.852;2022-12-15T14:10:48;1.90;99.90
35373;DHT22;21476;51.652;7.852;2022-12-15T14:13:21;1.80;99.90
35373;DHT22;21476;51.652;7.852;2022-12-15T14:18:40;1.70;99.90
35373;DHT22;21476;51.652;7.852;2022-12-15T14:21:21;1.70;99.90
35373;DHT22;21476;51.652;7.852;2022-12-15T14:24:15;1.60;99.90
35373;DHT22;21476;51.652;7.852;2022-12-15T14:26:40;1.50;99.90
35373;DHT22;21476;51.652;7.852;2022-12-15T14:29:07;1.40;99.90
35373;DHT22;21476;51.652;7.852;2022-12-15T14:31:36;1.30;99.90
35373;DHT22;21476;51.652;7.852;2022-12-15T14:34:34;1.30;99.90
35373;DHT22;21476;51.652;7.852;2022-12-15T14:37:16;1.20;99.90
35373;DHT22;21476;51.652;7.852;2022-12-15T14:39:59;1.10;99.90
35373;DHT22;21476;51.652;7.852;2022-12-15T14:42:29;1.00;99.90
35373;DHT22;21476;51.652;7.852;2022-12-15T14:44:55;0.90;99.90
35373;DHT22;21476;51.652;7.852;2022-12-15T14:47:53;1.00;99.90
35373;DHT22;21476;51.652;7.852;2022-12-15T14:50:22;0.90;99.90
35373;DHT22;21476;51.652;7.852;2022-12-15T14:53:04;0.80;99.90
35373;DHT22;21476;51.652;7.852;2022-12-15T14:55:36;0.70;99.90
35373;DHT22;21476;51.652;7.852;2022-12-15T15:01:38;0.40;99.90
35373;DHT22;21476;51.652;7.852;2022-12-15T15:04:30;0.30;99.90
35373;DHT22;21476;51.652;7.852;2022-12-15T15:06:59;0.20;99.90
35373;DHT22;21476;51.652;7.852;2022-12-15T15:09:38;0.10;99.90
35373;DHT22;21476;51.652;7.852;2022-12-15T15:12:38;0.00;99.90
35373;DHT22;21476;51.652;7.852;2022-12-15T15:18:42;-0.30;99.90
35373;DHT22;21476;51.652;7.852;2022-12-15T15:26:38;-0.60;99.90
35373;DHT22;21476;51.652;7.852;2022-12-15T15:30:04;-0.70;99.90
35373;DHT22;21476;51.652;7.852;2022-12-15T15:32:21;-0.80;99.90
35373;DHT22;21476;51.652;7.852;2022-12-15T15:34:47;-0.90;99.90
35373;DHT22;21476;51.652;7.852;2022-12-15T15:37:23;-1.00;99.90
35373;DHT22;21476;51.652;7.852;2022-12-15T15:39:50;-1.10;99.90
35373;DHT22;21476;51.652;7.852;2022-12-15T15:42:16;-1.10;99.90
35373;DHT22;21476;51.652;7.852;2022-12-15T15:44:42;-1.20;99.90
35373;DHT22;21476;51.652;7.852;2022-12-15T15:47:24;-1.30;99.90
35373;DHT22;21476;51.652;7.852;2022-12-15T15:49:51;-1.40;99.90
35373;DHT22;21476;51.652;7.852;2022-12-15T15:52:16;-1.50;99.90
35373;DHT22;21476;51.652;7.852;2022-12-15T15:54:43;-1.50;99.90
35373;DHT22;21476;51.652;7.852;2022-12-15T15:57:15;-1.50;99.90
35373;DHT22;21476;51.652;7.852;2022-12-15T15:59:42;-1.60;99.90
35373;DHT22;21476;51.652;7.852;2022-12-15T16:02:10;-1.60;99.90
35373;DHT22;21476;51.652;7.852;2022-12-15T16:04:36;-1.60;99.90
35373;DHT22;21476;51.652;7.852;2022-12-15T16:07:10;-1.60;99.90
35373;DHT22;21476;51.652;7.852;2022-12-15T16:09:39;-1.70;99.90
35373;DHT22;21476;51.652;7.852;2022-12-15T16:12:05;-1.70;99.90
35373;DHT22;21476;51.652;7.852;2022-12-15T16:14:30;-1.90;99.90
35373;DHT22;21476;51.652;7.852;2022-12-15T16:16:56;-2.00;99.90
35373;DHT22;21476;51.652;7.852;2022-12-15T16:19:24;-2.00;99.90
35373;DHT22;21476;51.652;7.852;2022-12-15T16:21:54;-2.00;99.90
35373;DHT22;21476;51.652;7.852;2022-12-15T16:24:19;-2.00;99.90
35373;DHT22;21476;51.652;7.852;2022-12-15T16:26:49;-2.10;99.90
35373;DHT22;21476;51.652;7.852;2022-12-15T16:29:17;-2.20;99.90
35373;DHT22;21476;51.652;7.852;2022-12-15T16:31:43;-2.30;99.90
35373;DHT22;21476;51.652;7.852;2022-12-15T16:34:12;-2.30;99.90
35373;DHT22;21476;51.652;7.852;2022-12-15T16:36:39;-2.30;99.90
35373;DHT22;21476;51.652;7.852;2022-12-15T16:39:31;-2.20;99.90
35373;DHT22;21476;51.652;7.852;2022-12-15T16:41:55;-2.20;99.90
35373;DHT22;21476;51.652;7.852;2022-12-15T16:44:21;-2.30;99.90
35373;DHT22;21476;51.652;7.852;2022-12-15T16:46:47;-2.30;99.90
35373;DHT22;21476;51.652;7.852;2022-12-15T16:49:12;-2.30;99.90
35373;DHT22;21476;51.652;7.852;2022-12-15T16:51:41;-2.40;99.90
35373;DHT22;21476;51.652;7.852;2022-12-15T16:54:17;-2.30;99.90
35373;DHT22;21476;51.652;7.852;2022-12-15T16:56:43;-2.30;99.90
35373;DHT22;21476;51.652;7.852;2022-12-15T16:59:18;-2.40;99.90
35373;DHT22;21476;51.652;7.852;2022-12-15T17:01:44;-2.50;99.90
35373;DHT22;21476;51.652;7.852;2022-12-15T17:04:10;-2.60;99.90
35373;DHT22;21476;51.652;7.852;2022-12-15T17:06:36;-2.70;99.90
35373;DHT22;21476;51.652;7.852;2022-12-15T17:09:02;-2.70;99.90
35373;DHT22;21476;51.652;7.852;2022-12-15T17:11:28;-2.70;99.90
35373;DHT22;21476;51.652;7.852;2022-12-15T17:13:56;-2.70;99.90
35373;DHT22;21476;51.652;7.852;2022-12-15T17:16:24;-2.80;99.90
35373;DHT22;21476;51.652;7.852;2022-12-15T17:18:50;-2.80;99.90
35373;DHT22;21476;51.652;7.852;2022-12-15T17:21:25;-2.90;99.90
35373;DHT22;21476;51.652;7.852;2022-12-15T17:23:54;-2.90;99.90
35373;DHT22;21476;51.652;7.852;2022-12-15T17:26:26;-3.00;99.90
35373;DHT22;21476;51.652;7.852;2022-12-15T17:28:53;-3.00;99.90
35373;DHT22;21476;51.652;7.852;2022-12-15T17:31:20;-3.00;99.90
35373;DHT22;21476;51.652;7.852;2022-12-15T17:33:47;-2.90;99.90
35373;DHT22;21476;51.652;7.852;2022-12-15T17:36:20;-2.90;99.90
35373;DHT22;21476;51.652;7.852;2022-12-15T17:38:56;-3.00;99.90
35373;DHT22;21476;51.652;7.852;2022-12-15T17:41:22;-3.10;99.90
35373;DHT22;21476;51.652;7.852;2022-12-15T17:43:48;-3.10;99.90
35373;DHT22;21476;51.652;7.852;2022-12-15T17:46:14;-3.20;99.90
35373;DHT22;21476;51.652;7.852;2022-12-15T17:48:40;-3.20;99.90
35373;DHT22;21476;51.652;7.852;2022-12-15T17:51:16;-3.20;99.90
35373;DHT22;21476;51.652;7.852;2022-12-15T17:53:44;-3.20;99.90
35373;DHT22;21476;51.652;7.852;2022-12-15T17:56:11;-3.30;99.90
35373;DHT22;21476;51.652;7.852;2022-12-15T17:58:38;-3.40;99.90
35373;DHT22;21476;51.652;7.852;2022-12-15T18:01:04;-3.50;99.90
35373;DHT22;21476;51.652;7.852;2022-12-15T18:03:29;-3.50;99.90
35373;DHT22;21476;51.652;7.852;2022-12-15T18:05:55;-3.60;99.90
35373;DHT22;21476;51.652;7.852;2022-12-15T18:08:24;-3.50;99.90
35373;DHT22;21476;51.652;7.852;2022-12-15T18:10:53;-3.50;99.90
35373;DHT22;21476;51.652;7.852;2022-12-15T18:13:28;-3.60;99.90
35373;DHT22;21476;51.652;7.852;2022-12-15T18:15:55;-3.60;99.90
35373;DHT22;21476;51.652;7.852;2022-12-15T18:18:22;-3.50;99.90